createdAt,value
2018-04-15T00:01:27.133Z,55.90
2018-04-15T00:03:56.554Z,54.00
2018-04-15T00:06:25.967Z,52.10
2018-04-15T00:08:55.516Z,52.50
2018-04-15T00:11:26.972Z,51.30
2018-04-15T00:13:56.209Z,51.30
2018-04-15T00:16:26.559Z,49.10
2018-04-15T00:18:56.449Z,49.10
2018-04-15T00:21:25.777Z,51.70
2018-04-15T00:23:55.037Z,47.30
2018-04-15T00:26:26.026Z,46.50
2018-04-15T00:28:55.251Z,46.70
2018-04-15T00:31:24.407Z,47.70
2018-04-15T00:33:53.743Z,44.90
2018-04-15T00:36:23.371Z,45.40
2018-04-15T00:38:52.901Z,45.40
2018-04-15T00:41:22.841Z,48.00
2018-04-15T00:43:52.084Z,48.00
2018-04-15T00:46:21.441Z,46.90
2018-04-15T00:48:50.723Z,44.50
2018-04-15T00:51:19.829Z,44.40
2018-04-15T00:54:00.762Z,45.60
2018-04-15T00:56:31.123Z,47.30
2018-04-15T00:59:00.816Z,47.20
2018-04-15T01:01:30.516Z,45.50
2018-04-15T01:03:59.543Z,49.60
2018-04-15T01:06:28.370Z,46.90
2018-04-15T01:08:58.101Z,47.60
2018-04-15T01:11:28.751Z,45.40
2018-04-15T01:13:58.021Z,49.40
2018-04-15T01:16:28.297Z,44.60
2018-04-15T01:18:57.553Z,42.40
2018-04-15T01:21:27.178Z,45.40
2018-04-15T01:23:56.720Z,46.30
2018-04-15T01:26:25.818Z,46.60
2018-04-15T01:28:55.230Z,43.70
2018-04-15T01:31:24.704Z,47.90
2018-04-15T01:33:55.945Z,44.20
2018-04-15T01:36:26.132Z,43.70
2018-04-15T01:38:56.919Z,45.00
2018-04-15T01:41:26.098Z,44.60
2018-04-15T01:43:56.178Z,45.40
2018-04-15T01:46:25.785Z,44.70
2018-04-15T01:48:55.007Z,44.80
2018-04-15T01:51:24.069Z,41.60
2018-04-15T01:53:54.967Z,43.20
2018-04-15T01:56:24.325Z,43.10
2018-04-15T01:58:54.491Z,42.90
2018-04-15T02:01:24.268Z,42.60
2018-04-15T02:03:53.929Z,44.00
2018-04-15T02:06:22.953Z,44.10
2018-04-15T02:08:52.201Z,49.40
2018-04-15T02:11:21.760Z,48.10
2018-04-15T02:13:52.950Z,47.30
2018-04-15T02:16:22.912Z,47.20
2018-04-15T02:18:52.397Z,51.30
2018-04-15T02:21:21.515Z,51.50
2018-04-15T02:23:51.083Z,49.60
2018-04-15T02:26:20.190Z,49.50
2018-04-15T02:28:49.907Z,50.30
2018-04-15T02:31:19.151Z,50.90
2018-04-15T02:33:48.647Z,50.20
2018-04-15T02:36:18.335Z,50.60
2018-04-15T02:38:47.840Z,50.00
2018-04-15T02:41:17.160Z,46.80
2018-04-15T02:43:46.652Z,47.60
2018-04-15T02:46:15.408Z,47.10
2018-04-15T02:48:45.021Z,46.60
2018-04-15T02:51:14.552Z,45.80
2018-04-15T02:53:43.742Z,48.80
2018-04-15T02:56:14.054Z,47.90
2018-04-15T02:58:44.151Z,47.00
2018-04-15T03:01:13.894Z,46.90
2018-04-15T03:03:44.530Z,46.20
2018-04-15T03:06:14.022Z,46.10
2018-04-15T03:08:43.619Z,47.70
2018-04-15T03:11:12.999Z,47.70
2018-04-15T03:13:42.007Z,47.20
2018-04-15T03:16:12.948Z,48.40
2018-04-15T03:18:42.287Z,47.00
2018-04-15T03:21:11.840Z,48.70
2018-04-15T03:23:41.309Z,48.20
2018-04-15T03:26:11.992Z,49.20
2018-04-15T03:28:41.863Z,49.00
2018-04-15T03:31:11.288Z,49.60
2018-04-15T03:33:41.617Z,50.20
2018-04-15T03:38:46.068Z,51.00
2018-04-15T03:41:15.400Z,51.20
2018-04-15T03:43:45.176Z,50.70
2018-04-15T03:46:14.527Z,50.40
2018-04-15T03:48:43.337Z,51.00
2018-04-15T03:51:12.058Z,52.20
2018-04-15T03:53:41.161Z,53.80
2018-04-15T03:56:10.629Z,54.20
2018-04-15T03:58:39.933Z,54.10
2018-04-15T04:01:10.923Z,54.10
2018-04-15T04:03:40.203Z,54.70
2018-04-15T04:06:09.690Z,54.30
2018-04-15T04:08:39.768Z,56.80
2018-04-15T04:11:08.603Z,56.80
2018-04-15T04:13:38.245Z,59.00
2018-04-15T04:16:07.314Z,59.00
2018-04-15T04:18:49.099Z,60.20
2018-04-15T04:21:30.225Z,60.30
2018-04-15T04:24:11.231Z,60.70
2018-04-15T04:26:41.599Z,61.20
2018-04-15T04:29:10.314Z,61.10
2018-04-15T04:31:39.138Z,59.20
2018-04-15T04:34:10.040Z,60.40
2018-04-15T04:36:39.972Z,60.50
2018-04-15T04:39:08.752Z,61.00
2018-04-15T04:41:38.174Z,62.10
2018-04-15T04:44:08.315Z,64.10
2018-04-15T04:46:37.596Z,65.20
2018-04-15T04:49:06.575Z,65.20
2018-04-15T04:51:35.829Z,66.00
2018-04-15T04:54:05.198Z,67.10
2018-04-15T04:56:34.040Z,67.30
2018-04-15T04:59:03.356Z,68.30
2018-04-15T05:01:32.675Z,68.30
2018-04-15T05:04:02.747Z,69.80
2018-04-15T05:06:32.027Z,69.80
2018-04-15T05:09:02.023Z,69.60
2018-04-15T05:11:31.702Z,70.70
2018-04-15T05:14:02.684Z,71.20
2018-04-15T05:16:32.119Z,71.10
2018-04-15T05:19:02.850Z,73.00
2018-04-15T05:21:31.984Z,73.00
2018-04-15T05:24:01.205Z,72.40
2018-04-15T05:26:30.369Z,73.80
2018-04-15T05:28:59.669Z,74.90
2018-04-15T05:31:29.786Z,73.30
2018-04-15T05:34:00.647Z,76.90
2018-04-15T05:36:30.979Z,74.80
2018-04-15T05:39:00.272Z,74.80
2018-04-15T05:41:29.747Z,76.30
2018-04-15T05:44:00.869Z,76.40
2018-04-15T05:46:29.964Z,77.10
2018-04-15T05:48:59.468Z,77.20
2018-04-15T05:51:29.948Z,77.10
2018-04-15T05:54:00.034Z,76.80
2018-04-15T05:56:29.757Z,77.30
2018-04-15T05:58:59.117Z,77.20
2018-04-15T06:01:29.168Z,77.50
2018-04-15T06:03:58.490Z,78.00
2018-04-15T06:06:27.777Z,79.30
2018-04-15T06:08:57.357Z,76.60
2018-04-15T06:11:26.765Z,77.20
2018-04-15T06:13:56.571Z,77.40
2018-04-15T06:16:26.168Z,76.10
2018-04-15T06:18:55.401Z,77.30
2018-04-15T06:21:26.316Z,77.90
2018-04-15T06:23:55.832Z,78.90
2018-04-15T06:26:25.835Z,79.30
2018-04-15T06:28:55.791Z,79.20
2018-04-15T06:31:26.652Z,79.20
2018-04-15T06:33:57.488Z,78.40
2018-04-15T06:36:27.683Z,78.50
2018-04-15T06:38:56.744Z,78.80
2018-04-15T06:41:26.061Z,80.20
2018-04-15T06:44:03.093Z,78.80
2018-04-15T06:46:32.539Z,78.80
2018-04-15T06:49:02.814Z,80.20
2018-04-15T06:51:39.222Z,80.20
2018-04-15T06:54:08.540Z,80.50
2018-04-15T06:56:38.053Z,80.60
2018-04-15T06:59:07.347Z,80.20
2018-04-15T07:01:36.676Z,80.80
2018-04-15T07:04:06.308Z,82.00
2018-04-15T07:06:35.866Z,81.40
2018-04-15T07:09:05.731Z,81.10
2018-04-15T07:11:35.009Z,81.70
2018-04-15T07:14:04.602Z,81.80
2018-04-15T07:16:35.221Z,81.90
2018-04-15T07:19:04.786Z,81.90
2018-04-15T07:21:35.329Z,82.50
2018-04-15T07:24:04.961Z,82.80
2018-04-15T07:26:34.237Z,82.80
2018-04-15T07:29:03.544Z,82.70
2018-04-15T07:31:32.855Z,83.00
2018-04-15T07:34:02.685Z,83.20
2018-04-15T07:36:32.744Z,83.40
2018-04-15T07:39:01.919Z,83.40
2018-04-15T07:41:32.221Z,84.60
2018-04-15T07:44:01.825Z,84.80
2018-04-15T07:46:31.277Z,84.80
2018-04-15T07:49:00.981Z,85.30
2018-04-15T07:51:30.344Z,85.70
2018-04-15T07:53:59.584Z,85.50
2018-04-15T07:56:29.658Z,86.40
2018-04-15T07:58:59.656Z,86.10
2018-04-15T08:01:29.140Z,86.00
2018-04-15T08:03:58.398Z,86.40
2018-04-15T08:06:27.714Z,87.00
2018-04-15T08:08:57.414Z,87.10
2018-04-15T08:11:27.384Z,86.90
2018-04-15T08:13:56.951Z,86.90
2018-04-15T08:16:26.637Z,87.20
2018-04-15T08:18:55.955Z,87.40
2018-04-15T08:21:25.870Z,87.20
2018-04-15T08:23:56.195Z,87.60
2018-04-15T08:26:25.625Z,86.80
2018-04-15T08:28:55.029Z,88.60
2018-04-15T08:31:24.033Z,87.20
2018-04-15T08:33:53.390Z,88.10
2018-04-15T08:36:23.060Z,88.20
2018-04-15T08:38:52.371Z,88.70
2018-04-15T08:41:21.714Z,88.60
2018-04-15T08:43:52.229Z,88.50
2018-04-15T08:46:22.518Z,88.80
2018-04-15T08:48:52.064Z,88.80
2018-04-15T08:51:21.569Z,88.90
2018-04-15T08:53:51.012Z,88.50
2018-04-15T08:56:20.189Z,88.10
2018-04-15T08:58:49.474Z,87.60
2018-04-15T09:01:18.956Z,89.00
2018-04-15T09:03:48.201Z,89.10
2018-04-15T09:06:17.755Z,88.80
2018-04-15T09:08:47.014Z,89.30
2018-04-15T09:11:16.329Z,89.70
2018-04-15T09:13:45.499Z,88.80
2018-04-15T09:16:14.977Z,89.20
2018-04-15T09:18:44.254Z,88.60
2018-04-15T09:21:13.772Z,88.80
2018-04-15T09:23:43.048Z,89.30
2018-04-15T09:26:13.787Z,88.90
2018-04-15T09:28:43.739Z,89.30
2018-04-15T09:31:12.953Z,89.30
2018-04-15T09:33:42.294Z,88.90
2018-04-15T09:36:11.589Z,89.00
2018-04-15T09:38:40.904Z,89.40
2018-04-15T09:41:10.024Z,89.40
2018-04-15T09:43:39.326Z,88.50
2018-04-15T09:46:08.587Z,88.80
2018-04-15T09:48:37.527Z,88.40
2018-04-15T09:51:07.976Z,88.30
2018-04-15T09:53:36.996Z,88.20
2018-04-15T09:56:06.901Z,89.00
2018-04-15T09:58:36.432Z,89.00
2018-04-15T10:01:05.885Z,89.60
2018-04-15T10:03:35.641Z,89.10
2018-04-15T10:06:05.777Z,89.80
2018-04-15T10:08:35.405Z,89.90
2018-04-15T10:11:05.167Z,89.60
2018-04-15T10:13:34.925Z,89.80
2018-04-15T10:16:04.184Z,89.50
2018-04-15T10:18:33.443Z,89.30
2018-04-15T10:21:02.594Z,90.00
2018-04-15T10:23:32.008Z,90.10
2018-04-15T10:26:01.193Z,90.20
2018-04-15T10:28:31.683Z,90.50
2018-04-15T10:31:00.940Z,90.40
2018-04-15T10:33:30.328Z,90.10
2018-04-15T10:35:59.673Z,90.20
2018-04-15T10:38:28.978Z,90.20
2018-04-15T10:40:58.262Z,90.10
2018-04-15T10:43:27.625Z,89.90
2018-04-15T10:45:57.081Z,89.50
2018-04-15T10:48:26.377Z,90.00
2018-04-15T10:50:55.521Z,90.30
2018-04-15T10:53:24.552Z,90.30
2018-04-15T10:55:53.894Z,90.40
2018-04-15T10:58:23.168Z,90.40
2018-04-15T11:00:52.477Z,90.30
2018-04-15T11:03:21.759Z,90.50
2018-04-15T11:05:51.082Z,90.50
2018-04-15T11:08:20.459Z,90.40
2018-04-15T11:10:49.445Z,90.50
2018-04-15T11:13:18.764Z,90.40
2018-04-15T11:15:48.062Z,90.70
2018-04-15T11:18:18.161Z,90.60
2018-04-15T11:20:47.494Z,90.60
2018-04-15T11:23:17.831Z,90.60
2018-04-15T11:25:47.392Z,90.70
2018-04-15T11:28:16.722Z,90.80
2018-04-15T11:30:47.856Z,91.00
2018-04-15T11:33:17.797Z,90.80
2018-04-15T11:35:46.831Z,90.60
2018-04-15T11:38:16.527Z,90.50
2018-04-15T11:40:45.869Z,90.60
2018-04-15T11:43:15.744Z,90.80
2018-04-15T11:45:45.043Z,90.60
2018-04-15T11:48:14.751Z,90.80
2018-04-15T11:50:43.802Z,90.70
2018-04-15T11:53:14.094Z,90.70
2018-04-15T11:55:43.438Z,90.70
2018-04-15T11:58:12.925Z,90.40
2018-04-15T12:00:42.168Z,90.60
2018-04-15T12:03:11.553Z,90.50
2018-04-15T12:05:40.768Z,90.70
2018-04-15T12:08:10.336Z,90.70
2018-04-15T12:10:39.611Z,90.70
2018-04-15T12:13:09.108Z,90.60
2018-04-15T12:15:38.792Z,90.70
2018-04-15T12:18:08.493Z,90.70
2018-04-15T12:20:37.858Z,90.60
2018-04-15T12:23:07.524Z,91.00
2018-04-15T12:25:36.827Z,91.00
2018-04-15T12:28:06.130Z,91.00
2018-04-15T12:30:35.260Z,91.00
2018-04-15T12:33:05.538Z,90.90
2018-04-15T12:35:34.829Z,90.80
2018-04-15T12:38:04.123Z,90.70
2018-04-15T12:40:33.466Z,90.80
2018-04-15T12:43:04.215Z,90.10
2018-04-15T12:45:33.938Z,90.10
2018-04-15T12:48:03.222Z,90.10
2018-04-15T12:50:32.854Z,89.70
2018-04-15T12:53:02.423Z,89.40
2018-04-15T12:55:31.734Z,89.30
2018-04-15T12:58:00.989Z,90.00
2018-04-15T13:00:30.296Z,90.00
2018-04-15T13:02:59.580Z,90.10
2018-04-15T13:05:29.140Z,90.30
2018-04-15T13:07:58.778Z,90.20
2018-04-15T13:10:28.117Z,90.20
2018-04-15T13:12:57.417Z,90.00
2018-04-15T13:15:26.493Z,90.20
2018-04-15T13:17:55.633Z,90.40
2018-04-15T13:20:25.081Z,90.40
2018-04-15T13:22:54.600Z,90.50
2018-04-15T13:25:24.286Z,90.50
2018-04-15T13:27:53.361Z,90.20
2018-04-15T13:30:22.903Z,90.40
2018-04-15T13:32:51.988Z,90.60
2018-04-15T13:35:22.325Z,90.70
2018-04-15T13:37:51.442Z,90.60
2018-04-15T13:40:22.073Z,90.90
2018-04-15T13:42:52.756Z,90.70
2018-04-15T13:45:22.253Z,90.60
2018-04-15T13:47:51.796Z,90.50
2018-04-15T13:50:21.153Z,90.50
2018-04-15T13:52:50.418Z,90.50
2018-04-15T13:55:19.678Z,90.60
2018-04-15T13:57:49.004Z,90.70
2018-04-15T14:00:18.667Z,90.80
2018-04-15T14:02:48.193Z,90.80
2018-04-15T14:05:17.515Z,90.90
2018-04-15T14:07:47.024Z,91.00
2018-04-15T14:10:16.264Z,91.00
2018-04-15T14:12:45.624Z,91.10
2018-04-15T14:15:15.547Z,91.20
2018-04-15T14:17:45.388Z,91.10
2018-04-15T14:20:14.765Z,91.30
2018-04-15T14:22:44.391Z,91.30
2018-04-15T14:25:13.781Z,91.20
2018-04-15T14:27:43.196Z,91.40
2018-04-15T14:30:12.515Z,91.30
2018-04-15T14:32:41.638Z,91.50
2018-04-15T14:35:11.183Z,91.00
2018-04-15T14:37:41.261Z,91.20
2018-04-15T14:40:10.965Z,90.80
2018-04-15T14:42:40.264Z,90.10
2018-04-15T14:45:09.578Z,89.50
2018-04-15T14:47:39.580Z,89.20
2018-04-15T14:50:09.227Z,88.10
2018-04-15T14:52:38.491Z,87.40
2018-04-15T14:55:08.036Z,88.30
2018-04-15T14:57:37.407Z,88.80
2018-04-15T15:00:07.198Z,88.10
2018-04-15T15:02:36.551Z,88.00
2018-04-15T15:05:05.692Z,87.20
2018-04-15T15:07:34.986Z,86.90
2018-04-15T15:10:04.401Z,85.50
2018-04-15T15:12:33.806Z,86.60
2018-04-15T15:15:02.910Z,85.60
2018-04-15T15:17:32.624Z,85.30
2018-04-15T15:20:02.128Z,85.70
2018-04-15T15:22:31.644Z,85.80
2018-04-15T15:25:00.850Z,83.40
2018-04-15T15:27:30.327Z,82.20
2018-04-15T15:29:59.389Z,82.00
2018-04-15T15:32:29.063Z,80.90
2018-04-15T15:34:58.384Z,81.30
2018-04-15T15:37:28.074Z,80.30
2018-04-15T15:39:58.267Z,77.10
2018-04-15T15:42:27.467Z,78.20
2018-04-15T15:44:56.774Z,79.70
2018-04-15T15:47:26.317Z,71.70
2018-04-15T15:49:55.807Z,72.70
2018-04-15T15:52:25.232Z,72.70
2018-04-15T15:54:54.778Z,71.50
2018-04-15T15:57:24.098Z,72.90
2018-04-15T15:59:53.557Z,71.60
2018-04-15T16:02:23.492Z,72.30
2018-04-15T16:04:54.828Z,71.00
2018-04-15T16:07:24.097Z,71.30
2018-04-15T16:09:53.351Z,71.70
2018-04-15T16:12:23.027Z,70.40
2018-04-15T16:14:52.353Z,71.30
2018-04-15T16:17:21.623Z,69.20
2018-04-15T16:19:50.967Z,68.20
2018-04-15T16:22:20.247Z,68.90
2018-04-15T16:24:49.713Z,68.60
2018-04-15T16:27:20.108Z,67.60
2018-04-15T16:29:49.789Z,67.20
2018-04-15T16:32:20.524Z,70.40
2018-04-15T16:34:50.014Z,70.60
2018-04-15T16:37:19.070Z,69.90
2018-04-15T16:39:49.048Z,69.60
2018-04-15T16:42:19.348Z,69.60
2018-04-15T16:44:49.028Z,71.20
2018-04-15T16:47:18.521Z,72.20
2018-04-15T16:49:47.827Z,71.30
2018-04-15T16:52:18.178Z,73.60
2018-04-15T16:54:47.489Z,73.20
2018-04-15T16:57:16.981Z,74.90
2018-04-15T16:59:46.244Z,75.90
2018-04-15T17:02:15.654Z,76.80
2018-04-15T17:04:44.664Z,77.70
2018-04-15T17:07:13.908Z,78.30
2018-04-15T17:09:43.352Z,79.70
2018-04-15T17:12:12.756Z,79.80
2018-04-15T17:14:42.286Z,81.20
2018-04-15T17:17:12.832Z,80.30
2018-04-15T17:19:42.105Z,80.20
2018-04-15T17:22:11.897Z,81.00
2018-04-15T17:24:42.149Z,80.80
2018-04-15T17:27:11.698Z,80.90
2018-04-15T17:29:41.360Z,78.30
2018-04-15T17:32:10.741Z,77.60
2018-04-15T17:34:40.177Z,79.10
2018-04-15T17:37:09.238Z,80.80
2018-04-15T17:39:38.396Z,80.40
2018-04-15T17:42:07.400Z,78.00
2018-04-15T17:44:37.567Z,79.00
2018-04-15T17:47:06.878Z,79.50
2018-04-15T17:49:36.327Z,78.30
2018-04-15T17:52:05.658Z,79.60
2018-04-15T17:54:34.741Z,77.80
2018-04-15T17:57:04.021Z,79.20
2018-04-15T17:59:33.326Z,77.80
2018-04-15T18:02:02.892Z,76.50
2018-04-15T18:04:32.391Z,78.40
2018-04-15T18:07:01.434Z,77.40
2018-04-15T18:09:31.089Z,79.60
2018-04-15T18:12:00.392Z,75.90
2018-04-15T18:14:29.437Z,74.40
2018-04-15T18:16:58.975Z,80.20
2018-04-15T18:19:28.760Z,73.40
2018-04-15T18:21:58.186Z,77.40
2018-04-15T18:24:28.832Z,75.00
2018-04-15T18:26:58.128Z,74.80
2018-04-15T18:29:27.617Z,74.30
2018-04-15T18:31:57.117Z,71.70
2018-04-15T18:34:27.853Z,72.00
2018-04-15T18:36:57.263Z,72.00
2018-04-15T18:39:27.782Z,68.10
2018-04-15T18:41:56.978Z,67.60
2018-04-15T18:44:26.299Z,64.60
2018-04-15T18:46:56.610Z,65.00
2018-04-15T18:49:25.878Z,64.40
2018-04-15T18:51:55.204Z,66.90
2018-04-15T18:54:24.660Z,67.20
2018-04-15T18:56:53.789Z,62.30
2018-04-15T18:59:23.319Z,65.20
2018-04-15T19:01:52.822Z,64.10
2018-04-15T19:04:22.317Z,64.10
2018-04-15T19:06:51.633Z,61.40
2018-04-15T19:09:20.905Z,65.00
2018-04-15T19:11:51.038Z,63.20
2018-04-15T19:14:20.332Z,63.20
2018-04-15T19:16:49.856Z,61.60
2018-04-15T19:19:18.923Z,60.40
2018-04-15T19:21:48.574Z,57.80
2018-04-15T19:24:17.773Z,60.70
2018-04-15T19:26:47.194Z,60.10
2018-04-15T19:29:16.760Z,61.40
2018-04-15T19:31:45.869Z,57.00
2018-04-15T19:34:15.454Z,55.60
2018-04-15T19:36:44.777Z,57.50
2018-04-15T19:39:14.070Z,58.90
2018-04-15T19:41:43.130Z,57.10
2018-04-15T19:44:12.476Z,53.80
2018-04-15T19:46:41.718Z,57.30
2018-04-15T19:49:13.469Z,56.70
2018-04-15T19:51:42.781Z,56.70
2018-04-15T19:54:13.009Z,56.40
2018-04-15T19:56:42.591Z,56.10
2018-04-15T19:59:11.863Z,57.70
2018-04-15T20:01:41.492Z,58.20
2018-04-15T20:04:11.036Z,59.30
2018-04-15T20:06:40.341Z,59.40
2018-04-15T20:09:09.857Z,60.00
2018-04-15T20:11:39.275Z,58.80
2018-04-15T20:14:08.685Z,55.40
2018-04-15T20:16:37.945Z,56.80
2018-04-15T20:19:07.139Z,58.10
2018-04-15T20:21:36.491Z,56.30
2018-04-15T20:24:05.773Z,55.20
2018-04-15T20:26:34.833Z,54.60
2018-04-15T20:29:04.136Z,56.00
2018-04-15T20:31:33.670Z,54.60
2018-04-15T20:34:03.403Z,55.10
2018-04-15T20:36:33.059Z,55.30
2018-04-15T20:39:02.344Z,54.30
2018-04-15T20:41:32.840Z,56.20
2018-04-15T20:44:02.414Z,56.40
2018-04-15T20:46:31.971Z,56.50
2018-04-15T20:49:02.919Z,59.90
2018-04-15T20:51:34.063Z,60.30
2018-04-15T20:54:03.348Z,60.20
2018-04-15T20:56:32.558Z,56.90
2018-04-15T20:59:01.671Z,57.60
2018-04-15T21:01:31.587Z,60.70
2018-04-15T21:04:01.866Z,60.60
2018-04-15T21:06:31.293Z,61.40
2018-04-15T21:09:01.311Z,60.90
2018-04-15T21:11:30.486Z,60.90
2018-04-15T21:14:00.518Z,61.50
2018-04-15T21:16:29.795Z,59.10
2018-04-15T21:18:59.091Z,59.80
2018-04-15T21:21:28.425Z,58.20
2018-04-15T21:23:57.894Z,60.30
2018-04-15T21:26:27.651Z,60.60
2018-04-15T21:28:57.878Z,60.40
2018-04-15T21:31:27.501Z,60.30
2018-04-15T21:33:57.050Z,58.50
2018-04-15T21:36:26.708Z,61.30
2018-04-15T21:38:55.939Z,59.20
2018-04-15T21:41:28.268Z,60.30
2018-04-15T21:43:57.505Z,58.30
2018-04-15T21:46:26.728Z,61.50
2018-04-15T21:48:56.595Z,61.40
2018-04-15T21:51:25.845Z,61.10
2018-04-15T21:53:55.740Z,59.30
2018-04-15T21:56:25.014Z,58.80
2018-04-15T21:58:54.325Z,59.90
2018-04-15T22:01:23.475Z,59.10
2018-04-15T22:03:52.316Z,59.70
2018-04-15T22:06:21.746Z,59.10
2018-04-15T22:08:51.961Z,59.80
2018-04-15T22:11:27.218Z,59.70
2018-04-15T22:13:57.196Z,61.30
2018-04-15T22:16:26.715Z,61.30
2018-04-15T22:18:56.121Z,61.20
2018-04-15T22:21:26.089Z,62.20
2018-04-15T22:23:55.665Z,62.20
2018-04-15T22:26:25.744Z,59.50
2018-04-15T22:28:55.200Z,59.20
2018-04-15T22:31:24.765Z,61.30
2018-04-15T22:33:54.057Z,61.80
2018-04-15T22:36:25.246Z,62.40
2018-04-15T22:38:54.875Z,62.40
2018-04-15T22:41:24.067Z,60.40
2018-04-15T22:43:53.121Z,65.70
2018-04-15T22:46:22.465Z,61.20
2018-04-15T22:48:57.370Z,59.60
2018-04-15T22:51:26.895Z,57.90
2018-04-15T22:53:57.730Z,60.50
2018-04-15T22:56:28.507Z,59.50
2018-04-15T22:58:58.383Z,60.00
2018-04-15T23:01:27.624Z,58.20
2018-04-15T23:03:57.990Z,59.50
2018-04-15T23:06:27.829Z,59.40
2018-04-15T23:08:57.668Z,54.40
2018-04-15T23:11:27.756Z,55.40
2018-04-15T23:13:57.079Z,55.30
2018-04-15T23:16:26.382Z,60.90
2018-04-15T23:18:55.856Z,60.30
2018-04-15T23:21:25.177Z,62.10
2018-04-15T23:23:54.461Z,61.20
2018-04-15T23:26:24.015Z,62.70
2018-04-15T23:28:53.115Z,59.80
2018-04-15T23:31:22.376Z,59.20
2018-04-15T23:33:51.558Z,61.00
2018-04-15T23:36:20.955Z,60.80
2018-04-15T23:38:51.009Z,61.00
2018-04-15T23:41:21.176Z,60.20
2018-04-15T23:43:50.920Z,60.10
2018-04-15T23:46:20.207Z,55.80
2018-04-15T23:48:49.542Z,57.70
2018-04-15T23:51:18.834Z,59.40
2018-04-15T23:53:48.955Z,60.30
2018-04-15T23:56:19.251Z,60.30
2018-04-15T23:58:49.001Z,60.80
